sensor_id;sensor_type;location;lat;lon;timestamp;pressure;altitude;pressure_sealevel;temperature;humidity
9110;BME280;4590;51.462;6.692;2023-02-11T00:00:20;103236.13;;;8.35;64.87
9110;BME280;4590;51.462;6.692;2023-02-11T00:02:45;103244.13;;;8.36;64.51
9110;BME280;4590;51.462;6.692;2023-02-11T00:05:10;103232.31;;;8.36;64.53
9110;BME280;4590;51.462;6.692;2023-02-11T00:07:36;103222.66;;;8.33;64.79
9110;BME280;4590;51.462;6.692;2023-02-11T00:10:03;103225.16;;;8.35;64.68
9110;BME280;4590;51.462;6.692;2023-02-11T00:12:28;103229.56;;;8.36;64.72
9110;BME280;4590;51.462;6.692;2023-02-11T00:14:54;103227.66;;;8.36;64.39
9110;BME280;4590;51.462;6.692;2023-02-11T00:17:19;103223.03;;;8.37;64.58
9110;BME280;4590;51.462;6.692;2023-02-11T00:19:49;103223.03;;;8.37;64.63
9110;BME280;4590;51.462;6.692;2023-02-11T00:22:14;103215.41;;;8.39;64.49
9110;BME280;4590;51.462;6.692;2023-02-11T00:24:39;103215.16;;;8.40;64.72
9110;BME280;4590;51.462;6.692;2023-02-11T00:27:05;103220.03;;;8.38;64.71
9110;BME280;4590;51.462;6.692;2023-02-11T00:29:30;103219.81;;;8.40;64.64
9110;BME280;4590;51.462;6.692;2023-02-11T00:31:55;103214.09;;;8.41;64.23
9110;BME280;4590;51.462;6.692;2023-02-11T00:34:21;103217.69;;;8.42;64.50
9110;BME280;4590;51.462;6.692;2023-02-11T00:36:46;103221.25;;;8.42;64.75
9110;BME280;4590;51.462;6.692;2023-02-11T00:39:13;103218.75;;;8.41;64.80
9110;BME280;4590;51.462;6.692;2023-02-11T00:41:39;103215.78;;;8.42;64.60
9110;BME280;4590;51.462;6.692;2023-02-11T00:44:04;103213.88;;;8.43;64.49
9110;BME280;4590;51.462;6.692;2023-02-11T00:46:29;103218.28;;;8.44;64.40
9110;BME280;4590;51.462;6.692;2023-02-11T00:48:55;103217.06;;;8.40;64.73
9110;BME280;4590;51.462;6.692;2023-02-11T00:51:23;103194.06;;;8.41;64.76
9110;BME280;4590;51.462;6.692;2023-02-11T00:53:48;103193.84;;;8.42;64.37
9110;BME280;4590;51.462;6.692;2023-02-11T00:56:14;103188.34;;;8.42;64.73
9110;BME280;4590;51.462;6.692;2023-02-11T00:58:39;103193.84;;;8.42;64.47
9110;BME280;4590;51.462;6.692;2023-02-11T01:01:04;103194.66;;;8.43;64.22
9110;BME280;4590;51.462;6.692;2023-02-11T01:03:30;103192.38;;;8.40;64.75
9110;BME280;4590;51.462;6.692;2023-02-11T01:05:55;103191.31;;;8.41;64.41
9110;BME280;4590;51.462;6.692;2023-02-11T01:08:21;103200.00;;;8.38;64.82
9110;BME280;4590;51.462;6.692;2023-02-11T01:10:54;103209.78;;;8.34;64.93
9110;BME280;4590;51.462;6.692;2023-02-11T01:13:20;103213.72;;;8.38;64.89
9110;BME280;4590;51.462;6.692;2023-02-11T01:15:45;103208.69;;;8.35;64.98
9110;BME280;4590;51.462;6.692;2023-02-11T01:18:10;103206.31;;;8.38;64.94
9110;BME280;4590;51.462;6.692;2023-02-11T01:20:36;103201.56;;;8.34;64.61
9110;BME280;4590;51.462;6.692;2023-02-11T01:23:01;103212.28;;;8.35;65.08
9110;BME280;4590;51.462;6.692;2023-02-11T01:25:26;103210.38;;;8.36;64.82
9110;BME280;4590;51.462;6.692;2023-02-11T01:27:52;103208.25;;;8.38;64.46
9110;BME280;4590;51.462;6.692;2023-02-11T01:30:17;103210.84;;;8.33;64.83
9110;BME280;4590;51.462;6.692;2023-02-11T01:32:42;103209.53;;;8.35;64.93
9110;BME280;4590;51.462;6.692;2023-02-11T01:35:08;103223.03;;;8.37;64.44
9110;BME280;4590;51.462;6.692;2023-02-11T01:37:33;103217.53;;;8.37;64.80
9110;BME280;4590;51.462;6.692;2023-02-11T01:40:01;103221.13;;;8.37;64.55
9110;BME280;4590;51.462;6.692;2023-02-11T01:42:27;103209.91;;;8.39;64.85
9110;BME280;4590;51.462;6.692;2023-02-11T01:44:53;103199.78;;;8.39;64.56
9110;BME280;4590;51.462;6.692;2023-02-11T01:47:19;103193.44;;;8.39;64.45
9110;BME280;4590;51.462;6.692;2023-02-11T01:49:48;103197.03;;;8.39;64.40
9110;BME280;4590;51.462;6.692;2023-02-11T01:52:34;103196.19;;;8.39;64.53
9110;BME280;4590;51.462;6.692;2023-02-11T01:55:04;103179.97;;;8.37;64.33
9110;BME280;4590;51.462;6.692;2023-02-11T01:57:54;103171.97;;;8.36;64.64
9110;BME280;4590;51.462;6.692;2023-02-11T02:00:36;103168.22;;;8.30;64.82
9110;BME280;4590;51.462;6.692;2023-02-11T02:03:10;103163.38;;;8.32;64.60
9110;BME280;4590;51.462;6.692;2023-02-11T02:05:41;103166.13;;;8.32;64.63
9110;BME280;4590;51.462;6.692;2023-02-11T02:08:20;103173.94;;;8.29;64.79
9110;BME280;4590;51.462;6.692;2023-02-11T02:10:50;103176.47;;;8.30;64.67
9110;BME280;4590;51.462;6.692;2023-02-11T02:13:18;103193.56;;;8.32;64.38
9110;BME280;4590;51.462;6.692;2023-02-11T02:24:09;103175.25;;;8.26;64.88
9110;BME280;4590;51.462;6.692;2023-02-11T02:27:02;103166.88;;;8.21;64.71
9110;BME280;4590;51.462;6.692;2023-02-11T02:33:18;103164.84;;;8.17;65.12
9110;BME280;4590;51.462;6.692;2023-02-11T02:36:04;103159.34;;;8.17;64.86
9110;BME280;4590;51.462;6.692;2023-02-11T02:38:46;103169.25;;;8.18;64.67
9110;BME280;4590;51.462;6.692;2023-02-11T02:41:20;103154.69;;;8.17;64.85
9110;BME280;4590;51.462;6.692;2023-02-11T02:43:48;103165.19;;;8.20;64.88
9110;BME280;4590;51.462;6.692;2023-02-11T02:48:45;103156.13;;;8.20;64.86
9110;BME280;4590;51.462;6.692;2023-02-11T02:58:00;103157.28;;;8.12;64.95
9110;BME280;4590;51.462;6.692;2023-02-11T03:00:11;103149.28;;;8.10;65.10
9110;BME280;4590;51.462;6.692;2023-02-11T03:05:50;103146.41;;;8.05;65.80
9110;BME280;4590;51.462;6.692;2023-02-11T03:08:44;103149.13;;;8.05;65.33
9110;BME280;4590;51.462;6.692;2023-02-11T03:11:11;103141.75;;;8.06;65.49
9110;BME280;4590;51.462;6.692;2023-02-11T03:13:40;103148.44;;;8.10;65.07
9110;BME280;4590;51.462;6.692;2023-02-11T03:16:10;103134.97;;;8.08;65.15
9110;BME280;4590;51.462;6.692;2023-02-11T03:18:40;103127.81;;;8.07;65.25
9110;BME280;4590;51.462;6.692;2023-02-11T03:21:08;103133.28;;;8.07;65.31
9110;BME280;4590;51.462;6.692;2023-02-11T03:23:39;103132.69;;;8.05;65.56
9110;BME280;4590;51.462;6.692;2023-02-11T03:26:13;103138.41;;;8.04;65.59
9110;BME280;4590;51.462;6.692;2023-02-11T03:28:47;103138.66;;;8.02;65.76
9110;BME280;4590;51.462;6.692;2023-02-11T03:31:22;103139.47;;;8.03;65.74
9110;BME280;4590;51.462;6.692;2023-02-11T03:33:58;103139.25;;;8.04;65.71
9110;BME280;4590;51.462;6.692;2023-02-11T03:36:35;103140.78;;;8.00;65.59
9110;BME280;4590;51.462;6.692;2023-02-11T03:39:03;103146.41;;;8.05;65.56
9110;BME280;4590;51.462;6.692;2023-02-11T03:41:30;103135.44;;;8.05;65.69
9110;BME280;4590;51.462;6.692;2023-02-11T03:43:58;103142.97;;;8.10;65.65
9110;BME280;4590;51.462;6.692;2023-02-11T03:46:36;103137.09;;;8.06;65.17
9110;BME280;4590;51.462;6.692;2023-02-11T03:49:07;103152.25;;;8.09;65.75
9110;BME280;4590;51.462;6.692;2023-02-11T03:51:34;103147.00;;;8.07;65.55
9110;BME280;4590;51.462;6.692;2023-02-11T03:54:02;103137.72;;;8.08;65.63
9110;BME280;4590;51.462;6.692;2023-02-11T03:56:35;103138.78;;;8.07;65.74
9110;BME280;4590;51.462;6.692;2023-02-11T03:59:02;103128.66;;;8.08;65.54
9110;BME280;4590;51.462;6.692;2023-02-11T04:01:27;103125.91;;;8.08;65.84
9110;BME280;4590;51.462;6.692;2023-02-11T04:03:53;103121.25;;;8.08;65.91
9110;BME280;4590;51.462;6.692;2023-02-11T04:06:18;103118.53;;;8.08;65.52
9110;BME280;4590;51.462;6.692;2023-02-11T04:08:43;103129.50;;;8.08;65.87
9110;BME280;4590;51.462;6.692;2023-02-11T04:11:09;103115.78;;;8.08;65.74
9110;BME280;4590;51.462;6.692;2023-02-11T04:13:34;103112.44;;;8.06;66.01
9110;BME280;4590;51.462;6.692;2023-02-11T04:15:59;103120.44;;;8.08;65.89
9110;BME280;4590;51.462;6.692;2023-02-11T04:18:24;103128.66;;;8.08;65.68
9110;BME280;4590;51.462;6.692;2023-02-11T04:20:50;103136.03;;;8.07;66.36
9110;BME280;4590;51.462;6.692;2023-02-11T04:23:15;103131.84;;;8.05;65.91
9110;BME280;4590;51.462;6.692;2023-02-11T04:25:41;103127.09;;;8.00;66.55
9110;BME280;4590;51.462;6.692;2023-02-11T04:28:06;103138.66;;;8.02;66.28
9110;BME280;4590;51.462;6.692;2023-02-11T04:30:32;103147.13;;;8.01;66.53
9110;BME280;4590;51.462;6.692;2023-02-11T04:32:57;103145.44;;;8.00;66.36
9110;BME280;4590;51.462;6.692;2023-02-11T04:35:23;103137.81;;;8.02;66.53
9110;BME280;4590;51.462;6.692;2023-02-11T04:37:48;103148.63;;;7.97;66.65
9110;BME280;4590;51.462;6.692;2023-02-11T04:40:13;103162.72;;;8.00;66.25
9110;BME280;4590;51.462;6.692;2023-02-11T04:42:38;103164.63;;;8.00;66.56
9110;BME280;4590;51.462;6.692;2023-02-11T04:45:04;103167.16;;;8.01;66.74
9110;BME280;4590;51.462;6.692;2023-02-11T04:47:30;103172.00;;;7.99;66.95
9110;BME280;4590;51.462;6.692;2023-02-11T04:49:55;103174.16;;;7.97;67.02
9110;BME280;4590;51.462;6.692;2023-02-11T04:52:20;103156.84;;;7.97;66.80
9110;BME280;4590;51.462;6.692;2023-02-11T04:54:46;103163.19;;;7.97;67.07
9110;BME280;4590;51.462;6.692;2023-02-11T04:57:11;103157.47;;;7.99;67.15
9110;BME280;4590;51.462;6.692;2023-02-11T04:59:36;103143.75;;;7.99;66.69
9110;BME280;4590;51.462;6.692;2023-02-11T05:02:02;103142.47;;;8.01;67.15
9110;BME280;4590;51.462;6.692;2023-02-11T05:04:28;103139.94;;;8.00;67.27
9110;BME280;4590;51.462;6.692;2023-02-11T05:06:53;103144.59;;;7.99;67.11
9110;BME280;4590;51.462;6.692;2023-02-11T05:09:18;103149.00;;;8.00;67.12
9110;BME280;4590;51.462;6.692;2023-02-11T05:11:44;103149.00;;;8.00;67.52
9110;BME280;4590;51.462;6.692;2023-02-11T05:14:09;103152.81;;;7.99;67.67
9110;BME280;4590;51.462;6.692;2023-02-11T05:16:34;103150.31;;;7.98;67.36
9110;BME280;4590;51.462;6.692;2023-02-11T05:19:00;103142.91;;;7.98;67.66
9110;BME280;4590;51.462;6.692;2023-02-11T05:21:25;103141.25;;;7.97;67.37
9110;BME280;4590;51.462;6.692;2023-02-11T05:23:50;103140.03;;;7.93;67.78
9110;BME280;4590;51.462;6.692;2023-02-11T05:26:16;103145.50;;;7.93;67.54
9110;BME280;4590;51.462;6.692;2023-02-11T05:28:43;103138.34;;;7.92;67.61
9110;BME280;4590;51.462;6.692;2023-02-11T05:31:09;103139.41;;;7.91;67.82
9110;BME280;4590;51.462;6.692;2023-02-11T05:33:34;103133.66;;;7.81;69.63
9110;BME280;4590;51.462;6.692;2023-02-11T05:36:02;103131.28;;;7.85;67.95
9110;BME280;4590;51.462;6.692;2023-02-11T05:38:28;103134.88;;;7.85;68.16
9110;BME280;4590;51.462;6.692;2023-02-11T05:40:53;103128.31;;;7.86;68.06
9110;BME280;4590;51.462;6.692;2023-02-11T05:43:19;103129.16;;;7.87;67.95
9110;BME280;4590;51.462;6.692;2023-02-11T05:45:44;103123.41;;;7.88;68.06
9110;BME280;4590;51.462;6.692;2023-02-11T05:48:09;103125.09;;;7.89;68.07
9110;BME280;4590;51.462;6.692;2023-02-11T05:50:34;103133.31;;;7.89;67.93
9110;BME280;4590;51.462;6.692;2023-02-11T05:53:00;103128.91;;;7.88;68.38
9110;BME280;4590;51.462;6.692;2023-02-11T05:55:25;103129.75;;;7.89;68.36
9110;BME280;4590;51.462;6.692;2023-02-11T05:57:50;103123.41;;;7.88;68.04
9110;BME280;4590;51.462;6.692;2023-02-11T06:00:16;103118.19;;;7.87;68.26
9110;BME280;4590;51.462;6.692;2023-02-11T06:02:41;103114.34;;;7.88;68.49
9110;BME280;4590;51.462;6.692;2023-02-11T06:05:07;103124.03;;;7.90;68.50
9110;BME280;4590;51.462;6.692;2023-02-11T06:07:32;103124.63;;;7.92;68.08
9110;BME280;4590;51.462;6.692;2023-02-11T06:09:57;103118.31;;;7.92;68.01
9110;BME280;4590;51.462;6.692;2023-02-11T06:12:23;103121.91;;;7.92;68.30
9110;BME280;4590;51.462;6.692;2023-02-11T06:14:49;103130.13;;;7.92;68.59
9110;BME280;4590;51.462;6.692;2023-02-11T06:17:14;103128.22;;;7.93;68.12
9110;BME280;4590;51.462;6.692;2023-02-11T06:19:39;103133.09;;;7.91;68.66
9110;BME280;4590;51.462;6.692;2023-02-11T06:22:04;103136.66;;;7.91;68.35
9110;BME280;4590;51.462;6.692;2023-02-11T06:24:30;103134.53;;;7.93;68.44
9110;BME280;4590;51.462;6.692;2023-02-11T06:26:55;103138.97;;;7.94;68.48
9110;BME280;4590;51.462;6.692;2023-02-11T06:29:20;103142.53;;;7.95;68.53
9110;BME280;4590;51.462;6.692;2023-02-11T06:31:45;103144.00;;;7.97;68.26
9110;BME280;4590;51.462;6.692;2023-02-11T06:34:11;103140.19;;;7.98;68.15
9110;BME280;4590;51.462;6.692;2023-02-11T06:36:39;103145.66;;;7.98;68.29
9110;BME280;4590;51.462;6.692;2023-02-11T06:39:06;103133.63;;;7.99;68.29
9110;BME280;4590;51.462;6.692;2023-02-11T06:41:31;103140.78;;;8.00;68.39
9110;BME280;4590;51.462;6.692;2023-02-11T06:43:57;103137.44;;;7.98;68.47
9110;BME280;4590;51.462;6.692;2023-02-11T06:46:22;103142.91;;;7.98;68.57
9110;BME280;4590;51.462;6.692;2023-02-11T06:48:47;103142.69;;;8.00;68.13
9110;BME280;4590;51.462;6.692;2023-02-11T06:51:14;103137.22;;;8.00;68.14
9110;BME280;4590;51.462;6.692;2023-02-11T06:53:41;103137.13;;;7.88;69.50
9110;BME280;4590;51.462;6.692;2023-02-11T06:56:10;103147.78;;;7.96;68.56
9110;BME280;4590;51.462;6.692;2023-02-11T06:58:36;103144.22;;;7.96;68.42
9110;BME280;4590;51.462;6.692;2023-02-11T07:01:09;103148.03;;;7.95;68.10
9110;BME280;4590;51.462;6.692;2023-02-11T07:03:37;103150.91;;;8.00;68.27
9110;BME280;4590;51.462;6.692;2023-02-11T07:06:04;103149.84;;;8.01;68.67
9110;BME280;4590;51.462;6.692;2023-02-11T07:08:32;103144.94;;;8.03;68.41
9110;BME280;4590;51.462;6.692;2023-02-11T07:10:58;103143.88;;;8.04;68.67
9110;BME280;4590;51.462;6.692;2023-02-11T07:13:23;103146.88;;;8.02;68.38
9110;BME280;4590;51.462;6.692;2023-02-11T07:15:48;103145.78;;;8.03;68.71
9110;BME280;4590;51.462;6.692;2023-02-11T07:18:14;103152.94;;;8.04;68.55
9110;BME280;4590;51.462;6.692;2023-02-11T07:20:39;103159.28;;;8.05;68.48
9110;BME280;4590;51.462;6.692;2023-02-11T07:23:05;103152.94;;;8.04;68.82
9110;BME280;4590;51.462;6.692;2023-02-11T07:25:30;103164.75;;;8.05;68.82
9110;BME280;4590;51.462;6.692;2023-02-11T07:27:55;103164.53;;;8.06;68.41
9110;BME280;4590;51.462;6.692;2023-02-11T07:30:21;103168.94;;;8.07;69.00
9110;BME280;4590;51.462;6.692;2023-02-11T07:32:46;103175.25;;;8.08;68.63
9110;BME280;4590;51.462;6.692;2023-02-11T07:35:11;103172.28;;;8.09;68.81
9110;BME280;4590;51.462;6.692;2023-02-11T07:37:37;103173.34;;;8.08;68.58
9110;BME280;4590;51.462;6.692;2023-02-11T07:40:02;103171.47;;;8.09;68.44
9110;BME280;4590;51.462;6.692;2023-02-11T07:42:27;103173.34;;;8.08;68.51
9110;BME280;4590;51.462;6.692;2023-02-11T07:44:53;103179.47;;;8.10;68.51
9110;BME280;4590;51.462;6.692;2023-02-11T07:47:18;103178.38;;;8.12;68.83
9110;BME280;4590;51.462;6.692;2023-02-11T07:49:44;103176.25;;;8.14;68.60
9110;BME280;4590;51.462;6.692;2023-02-11T07:52:09;103174.34;;;8.14;68.41
9110;BME280;4590;51.462;6.692;2023-02-11T07:54:34;103179.84;;;8.14;68.76
9110;BME280;4590;51.462;6.692;2023-02-11T07:57:00;103185.09;;;8.16;68.88
9110;BME280;4590;51.462;6.692;2023-02-11T07:59:25;103181.28;;;8.17;68.69
9110;BME280;4590;51.462;6.692;2023-02-11T08:01:51;103170.09;;;8.18;68.66
9110;BME280;4590;51.462;6.692;2023-02-11T08:04:16;103180.81;;;8.20;68.66
9110;BME280;4590;51.462;6.692;2023-02-11T08:06:42;103183.53;;;8.20;68.68
9110;BME280;4590;51.462;6.692;2023-02-11T08:09:12;103178.06;;;8.20;68.58
9110;BME280;4590;51.462;6.692;2023-02-11T08:11:38;103181.88;;;8.19;69.02
9110;BME280;4590;51.462;6.692;2023-02-11T08:14:03;103185.22;;;8.21;68.60
9110;BME280;4590;51.462;6.692;2023-02-11T08:16:31;103185.81;;;8.23;68.81
9110;BME280;4590;51.462;6.692;2023-02-11T08:18:58;103186.22;;;8.26;68.80
9110;BME280;4590;51.462;6.692;2023-02-11T08:21:24;103193.16;;;8.29;68.77
9110;BME280;4590;51.462;6.692;2023-02-11T08:23:50;103202.22;;;8.29;68.69
9110;BME280;4590;51.462;6.692;2023-02-11T08:26:21;103195.47;;;8.32;68.66
9110;BME280;4590;51.462;6.692;2023-02-11T08:28:48;103199.03;;;8.32;68.87
9110;BME280;4590;51.462;6.692;2023-02-11T08:31:17;103203.69;;;8.32;68.99
9110;BME280;4590;51.462;6.692;2023-02-11T08:33:43;103200.47;;;8.35;68.56
9110;BME280;4590;51.462;6.692;2023-02-11T08:36:10;103204.31;;;8.34;68.84
9110;BME280;4590;51.462;6.692;2023-02-11T08:38:36;103210.13;;;8.37;68.69
9110;BME280;4590;51.462;6.692;2023-02-11T08:41:01;103204.44;;;8.39;68.82
9110;BME280;4590;51.462;6.692;2023-02-11T08:43:26;103201.44;;;8.40;68.88
9110;BME280;4590;51.462;6.692;2023-02-11T08:45:52;103215.78;;;8.42;68.56
9110;BME280;4590;51.462;6.692;2023-02-11T08:48:17;103209.00;;;8.45;68.50
9110;BME280;4590;51.462;6.692;2023-02-11T08:50:42;103207.09;;;8.46;68.78
9110;BME280;4590;51.462;6.692;2023-02-11T08:53:08;103200.06;;;8.50;68.70
9110;BME280;4590;51.462;6.692;2023-02-11T08:55:34;103204.72;;;8.49;69.10
9110;BME280;4590;51.462;6.692;2023-02-11T08:57:59;103201.72;;;8.51;68.86
9110;BME280;4590;51.462;6.692;2023-02-11T09:00:24;103200.44;;;8.53;68.74
9110;BME280;4590;51.462;6.692;2023-02-11T09:02:50;103209.72;;;8.52;68.80
9110;BME280;4590;51.462;6.692;2023-02-11T09:05:15;103220.84;;;8.57;68.75
9110;BME280;4590;51.462;6.692;2023-02-11T09:07:40;103220.38;;;8.60;68.44
9110;BME280;4590;51.462;6.692;2023-02-11T09:10:07;103222.69;;;8.63;68.56
9110;BME280;4590;51.462;6.692;2023-02-11T09:12:32;103234.41;;;8.52;69.88
9110;BME280;4590;51.462;6.692;2023-02-11T09:14:57;103235.56;;;8.63;68.75
9110;BME280;4590;51.462;6.692;2023-02-11T09:17:23;103234.25;;;8.65;68.72
9110;BME280;4590;51.462;6.692;2023-02-11T09:19:48;103232.69;;;8.69;68.80
9110;BME280;4590;51.462;6.692;2023-02-11T09:22:13;103232.25;;;8.72;68.46
9110;BME280;4590;51.462;6.692;2023-02-11T09:24:38;103224.00;;;8.72;68.76
9110;BME280;4590;51.462;6.692;2023-02-11T09:27:04;103226.28;;;8.75;68.65
9110;BME280;4590;51.462;6.692;2023-02-11T09:29:29;103235.81;;;8.73;68.91
9110;BME280;4590;51.462;6.692;2023-02-11T09:31:55;103235.97;;;8.78;68.64
9110;BME280;4590;51.462;6.692;2023-02-11T09:34:20;103237.16;;;8.82;68.66
9110;BME280;4590;51.462;6.692;2023-02-11T09:36:45;103240.50;;;8.84;68.70
9110;BME280;4590;51.462;6.692;2023-02-11T09:39:14;103247.69;;;8.85;68.60
9110;BME280;4590;51.462;6.692;2023-02-11T09:44:28;103238.28;;;8.93;68.77
9110;BME280;4590;51.462;6.692;2023-02-11T09:47:18;103244.38;;;8.95;68.41
9110;BME280;4590;51.462;6.692;2023-02-11T09:49:49;103243.66;;;8.99;68.79
9110;BME280;4590;51.462;6.692;2023-02-11T09:55:02;103259.81;;;9.07;68.41
9110;BME280;4590;51.462;6.692;2023-02-11T09:57:33;103265.91;;;9.09;68.48
9110;BME280;4590;51.462;6.692;2023-02-11T10:00:00;103260.28;;;9.16;68.39
9110;BME280;4590;51.462;6.692;2023-02-11T10:02:51;103262.44;;;9.14;68.49
9110;BME280;4590;51.462;6.692;2023-02-11T10:05:49;103274.03;;;9.16;68.59
9110;BME280;4590;51.462;6.692;2023-02-11T10:08:47;103274.88;;;9.17;68.44
9110;BME280;4590;51.462;6.692;2023-02-11T10:19:33;103273.81;;;9.18;68.82
9110;BME280;4590;51.462;6.692;2023-02-11T10:24:34;103268.59;;;9.28;68.36
9110;BME280;4590;51.462;6.692;2023-02-11T10:27:01;103279.56;;;9.28;68.48
9110;BME280;4590;51.462;6.692;2023-02-11T10:29:34;103271.91;;;9.30;68.77
9110;BME280;4590;51.462;6.692;2023-02-11T10:32:08;103280.75;;;9.32;68.45
9110;BME280;4590;51.462;6.692;2023-02-11T10:34:40;103286.63;;;9.35;68.74
9110;BME280;4590;51.462;6.692;2023-02-11T10:37:06;103287.81;;;9.39;68.45
9110;BME280;4590;51.462;6.692;2023-02-11T10:39:32;103285.31;;;9.38;68.57
9110;BME280;4590;51.462;6.692;2023-02-11T10:42:05;103285.31;;;9.38;68.18
9110;BME280;4590;51.462;6.692;2023-02-11T10:44:36;103285.44;;;9.43;68.56
9110;BME280;4590;51.462;6.692;2023-02-11T10:47:07;103293.19;;;9.46;68.11
9110;BME280;4590;51.462;6.692;2023-02-11T10:49:40;103296.31;;;9.49;68.22
9110;BME280;4590;51.462;6.692;2023-02-11T10:52:25;103296.56;;;9.48;68.08
9110;BME280;4590;51.462;6.692;2023-02-11T10:55:02;103296.91;;;9.52;68.45
9110;BME280;4590;51.462;6.692;2023-02-11T10:57:33;103289.28;;;9.54;68.08
9110;BME280;4590;51.462;6.692;2023-02-11T11:00:05;103286.28;;;9.55;68.05
9110;BME280;4590;51.462;6.692;2023-02-11T11:02:35;103291.78;;;9.55;68.24
9110;BME280;4590;51.462;6.692;2023-02-11T11:05:05;103296.81;;;9.58;68.35
9110;BME280;4590;51.462;6.692;2023-02-11T11:07:38;103295.00;;;9.64;68.38
9110;BME280;4590;51.462;6.692;2023-02-11T11:10:07;103297.53;;;9.65;68.30
9110;BME280;4590;51.462;6.692;2023-02-11T11:12:49;103293.22;;;9.69;67.87
9110;BME280;4590;51.462;6.692;2023-02-11T11:15:22;103300.19;;;9.72;67.93
9110;BME280;4590;51.462;6.692;2023-02-11T11:17:49;103298.03;;;9.74;67.88
9110;BME280;4590;51.462;6.692;2023-02-11T11:20:21;103306.03;;;9.75;67.90
9110;BME280;4590;51.462;6.692;2023-02-11T11:22:49;103301.13;;;9.77;68.30
9110;BME280;4590;51.462;6.692;2023-02-11T11:25:21;103305.78;;;9.77;67.98
9110;BME280;4590;51.462;6.692;2023-02-11T11:27:49;103306.38;;;9.79;68.21
9110;BME280;4590;51.462;6.692;2023-02-11T11:30:15;103301.25;;;9.82;68.33
9110;BME280;4590;51.462;6.692;2023-02-11T11:32:41;103300.28;;;9.89;68.05
9110;BME280;4590;51.462;6.692;2023-02-11T11:35:22;103305.56;;;9.90;67.67
9110;BME280;4590;51.462;6.692;2023-02-11T11:37:52;103296.34;;;9.96;68.03
9110;BME280;4590;51.462;6.692;2023-02-11T11:40:26;103293.72;;;10.01;68.31
9110;BME280;4590;51.462;6.692;2023-02-11T11:45:52;103304.84;;;10.06;67.84
9110;BME280;4590;51.462;6.692;2023-02-11T11:48:22;103300.88;;;10.14;67.77
9110;BME280;4590;51.462;6.692;2023-02-11T11:50:56;103286.63;;;10.17;67.58
9110;BME280;4590;51.462;6.692;2023-02-11T11:53:24;103289.28;;;10.24;67.64
9110;BME280;4590;51.462;6.692;2023-02-11T11:56:15;103289.53;;;10.22;67.47
9110;BME280;4590;51.462;6.692;2023-02-11T11:58:41;103293.81;;;10.30;67.48
9110;BME280;4590;51.462;6.692;2023-02-11T12:01:31;103284.97;;;10.28;67.50
9110;BME280;4590;51.462;6.692;2023-02-11T12:09:52;103290.09;;;10.36;67.07
9110;BME280;4590;51.462;6.692;2023-02-11T12:12:45;103298.69;;;10.39;67.35
9110;BME280;4590;51.462;6.692;2023-02-11T12:15:25;103293.44;;;10.38;66.98
9110;BME280;4590;51.462;6.692;2023-02-11T12:18:08;103294.53;;;10.37;67.00
9110;BME280;4590;51.462;6.692;2023-02-11T12:23:50;103303.13;;;10.40;66.92
9110;BME280;4590;51.462;6.692;2023-02-11T12:26:23;103302.03;;;10.41;67.27
9110;BME280;4590;51.462;6.692;2023-02-11T12:34:33;103295.69;;;10.41;67.13
9110;BME280;4590;51.462;6.692;2023-02-11T12:37:06;103292.69;;;10.42;66.79
9110;BME280;4590;51.462;6.692;2023-02-11T12:39:50;103293.31;;;10.44;66.95
9110;BME280;4590;51.462;6.692;2023-02-11T12:42:32;103294.63;;;10.42;66.98
9110;BME280;4590;51.462;6.692;2023-02-11T12:45:36;103290.19;;;10.41;67.02
9110;BME280;4590;51.462;6.692;2023-02-11T12:50:37;103290.66;;;10.49;66.99
9110;BME280;4590;51.462;6.692;2023-02-11T12:56:04;103294.59;;;10.53;66.78
9110;BME280;4590;51.462;6.692;2023-02-11T12:58:34;103283.09;;;10.57;66.56
9110;BME280;4590;51.462;6.692;2023-02-11T13:01:08;103276.50;;;10.58;66.81
9110;BME280;4590;51.462;6.692;2023-02-11T13:06:40;103264.50;;;10.64;66.63
9110;BME280;4590;51.462;6.692;2023-02-11T13:09:16;103265.47;;;10.69;66.53
9110;BME280;4590;51.462;6.692;2023-02-11T13:11:45;103266.13;;;10.76;66.78
9110;BME280;4590;51.462;6.692;2023-02-11T13:14:29;103267.81;;;10.77;66.44
9110;BME280;4590;51.462;6.692;2023-02-11T13:16:57;103270.66;;;10.82;66.50
9110;BME280;4590;51.462;6.692;2023-02-11T13:19:39;103278.69;;;10.84;66.35
9110;BME280;4590;51.462;6.692;2023-02-11T13:22:12;103277.84;;;10.83;66.26
9110;BME280;4590;51.462;6.692;2023-02-11T13:24:52;103288.03;;;10.83;66.02
9110;BME280;4590;51.462;6.692;2023-02-11T13:27:35;103268.75;;;10.83;66.19
9110;BME280;4590;51.462;6.692;2023-02-11T13:38:00;103272.34;;;10.83;66.51
9110;BME280;4590;51.462;6.692;2023-02-11T13:40:33;103278.94;;;10.82;66.58
9110;BME280;4590;51.462;6.692;2023-02-11T13:43:02;103281.19;;;10.85;66.26
9110;BME280;4590;51.462;6.692;2023-02-11T13:45:42;103287.19;;;10.82;66.34
9110;BME280;4590;51.462;6.692;2023-02-11T13:48:27;103290.84;;;10.88;66.14
9110;BME280;4590;51.462;6.692;2023-02-11T13:50:59;103286.53;;;10.92;66.02
9110;BME280;4590;51.462;6.692;2023-02-11T13:53:26;103284.72;;;10.98;66.21
9110;BME280;4590;51.462;6.692;2023-02-11T13:56:11;103291.44;;;10.90;66.19
9110;BME280;4590;51.462;6.692;2023-02-11T13:58:49;103284.72;;;10.98;66.18
9110;BME280;4590;51.462;6.692;2023-02-11T14:02:00;103272.53;;;10.94;66.23
9110;BME280;4590;51.462;6.692;2023-02-11T14:13:23;103265.94;;;10.95;66.22
9110;BME280;4590;51.462;6.692;2023-02-11T14:23:53;103256.25;;;11.09;66.13
9110;BME280;4590;51.462;6.692;2023-02-11T14:26:48;103259.25;;;11.07;65.96
9110;BME280;4590;51.462;6.692;2023-02-11T14:29:22;103262.38;;;11.11;66.07
9110;BME280;4590;51.462;6.692;2023-02-11T14:32:33;103260.69;;;11.10;65.79
9110;BME280;4590;51.462;6.692;2023-02-11T14:43:19;103263.88;;;11.35;66.22
9110;BME280;4590;51.462;6.692;2023-02-11T14:45:49;103268.91;;;11.38;65.89
9110;BME280;4590;51.462;6.692;2023-02-11T14:48:17;103267.31;;;11.42;65.83
9110;BME280;4590;51.462;6.692;2023-02-11T14:51:19;103278.25;;;11.37;65.35
9110;BME280;4590;51.462;6.692;2023-02-11T14:53:49;103276.75;;;11.46;65.53
9110;BME280;4590;51.462;6.692;2023-02-11T14:56:23;103267.91;;;11.44;65.42
9110;BME280;4590;51.462;6.692;2023-02-11T14:58:51;103274.59;;;11.48;65.48
9110;BME280;4590;51.462;6.692;2023-02-11T15:01:34;103275.09;;;11.45;65.56
9110;BME280;4590;51.462;6.692;2023-02-11T15:04:02;103274.59;;;11.48;65.78
9110;BME280;4590;51.462;6.692;2023-02-11T15:06:39;103276.75;;;11.46;65.34
9110;BME280;4590;51.462;6.692;2023-02-11T15:09:13;103273.16;;;11.46;65.06
9110;BME280;4590;51.462;6.692;2023-02-11T15:11:42;103274.59;;;11.48;65.54